createdAt,value
2023-02-09T00:03:37.325Z,1.53
2023-02-09T00:08:38.963Z,1.50
2023-02-09T00:13:40.621Z,1.58
2023-02-09T00:18:42.202Z,1.68
2023-02-09T00:23:43.849Z,1.54
2023-02-09T00:28:45.465Z,1.49
2023-02-09T00:33:47.390Z,1.60
2023-02-09T00:38:49.209Z,1.40
2023-02-09T00:43:50.844Z,1.47
2023-02-09T00:48:52.463Z,1.48
2023-02-09T00:53:54.096Z,1.40
2023-02-09T00:58:55.820Z,1.23
2023-02-09T01:03:57.537Z,1.26
2023-02-09T01:09:00.791Z,1.36
2023-02-09T01:14:04.414Z,1.17
2023-02-09T01:19:06.079Z,1.06
2023-02-09T01:24:11.854Z,1.12
2023-02-09T01:29:16.552Z,1.13
2023-02-09T01:34:18.974Z,1.14
2023-02-09T01:39:23.354Z,1.03
2023-02-09T01:44:24.953Z,1.00
2023-02-09T01:49:28.157Z,0.97
2023-02-09T01:54:46.250Z,0.94
2023-02-09T01:59:53.328Z,1.05
2023-02-09T02:04:55.337Z,1.16
2023-02-09T02:09:57.293Z,0.97
2023-02-09T02:14:58.953Z,0.75
2023-02-09T02:20:33.650Z,0.78
2023-02-09T02:25:41.265Z,0.75
2023-02-09T02:31:05.063Z,0.73
2023-02-09T02:36:31.505Z,0.69
2023-02-09T02:42:01.805Z,0.67
2023-02-09T02:47:07.144Z,0.68
2023-02-09T02:52:10.934Z,0.72
2023-02-09T02:57:17.097Z,0.75
2023-02-09T03:02:26.305Z,0.73
2023-02-09T03:07:27.984Z,0.66
2023-02-09T03:12:52.340Z,0.63
2023-02-09T03:18:20.524Z,0.71
2023-02-09T03:23:31.842Z,0.62
2023-02-09T03:28:35.890Z,0.67
2023-02-09T03:33:39.497Z,0.74
2023-02-09T03:38:41.182Z,0.63
2023-02-09T03:44:01.345Z,0.51
2023-02-09T03:49:02.921Z,0.46
2023-02-09T03:54:04.567Z,0.33
2023-02-09T03:59:06.515Z,0.35
2023-02-09T04:04:08.719Z,0.38
2023-02-09T04:09:11.388Z,0.45
2023-02-09T04:14:13.828Z,0.47
2023-02-09T04:19:15.814Z,0.45
2023-02-09T04:24:17.472Z,0.48
2023-02-09T04:29:19.112Z,0.53
2023-02-09T04:34:22.883Z,0.60
2023-02-09T04:39:24.481Z,0.62
2023-02-09T04:44:26.113Z,0.72
2023-02-09T04:49:27.710Z,0.58
2023-02-09T04:54:29.374Z,0.56
2023-02-09T04:59:39.095Z,0.60
2023-02-09T05:04:40.745Z,0.62
2023-02-09T05:09:42.437Z,0.47
2023-02-09T05:14:44.029Z,0.53
2023-02-09T05:19:45.624Z,0.61
2023-02-09T05:24:47.310Z,0.64
2023-02-09T05:29:48.966Z,0.73
2023-02-09T05:34:50.698Z,0.78
2023-02-09T05:39:52.906Z,0.76
2023-02-09T05:44:54.567Z,0.79
2023-02-09T05:49:56.287Z,0.80
2023-02-09T05:54:57.905Z,0.71
2023-02-09T05:59:59.518Z,0.91
2023-02-09T06:05:01.131Z,0.80
2023-02-09T06:10:02.716Z,0.62
2023-02-09T06:15:05.078Z,0.74
2023-02-09T06:20:07.109Z,0.68
2023-02-09T06:25:08.735Z,0.66
2023-02-09T06:30:11.198Z,0.69
2023-02-09T06:35:12.826Z,0.77
2023-02-09T06:40:14.490Z,0.79
2023-02-09T06:45:17.532Z,0.71
2023-02-09T06:50:19.479Z,0.70
2023-02-09T06:55:21.298Z,0.59
2023-02-09T07:00:23.137Z,0.52
2023-02-09T07:05:25.561Z,0.78
2023-02-09T07:10:27.216Z,1.04
2023-02-09T07:15:28.858Z,0.80
2023-02-09T07:20:30.429Z,0.63
2023-02-09T07:25:32.221Z,0.56
2023-02-09T07:30:33.989Z,0.48
2023-02-09T07:35:39.714Z,0.55
2023-02-09T07:40:46.452Z,0.45
2023-02-09T07:45:48.342Z,0.55
2023-02-09T07:50:51.113Z,0.59
2023-02-09T07:55:53.170Z,0.70
2023-02-09T08:00:54.785Z,0.88
2023-02-09T08:06:02.363Z,1.04
2023-02-09T08:11:05.490Z,1.08
2023-02-09T08:16:15.023Z,1.07
2023-02-09T08:21:18.350Z,1.03
2023-02-09T08:26:20.221Z,0.84
2023-02-09T08:31:22.568Z,1.11
2023-02-09T08:36:24.248Z,1.21
2023-02-09T08:41:25.840Z,1.40
2023-02-09T08:46:27.749Z,1.39
2023-02-09T08:51:29.470Z,1.23
2023-02-09T08:56:31.085Z,1.15
2023-02-09T09:01:32.786Z,1.20
2023-02-09T09:06:34.493Z,1.21
2023-02-09T09:11:36.792Z,1.33
2023-02-09T09:16:38.590Z,1.44
2023-02-09T09:21:40.265Z,1.43
2023-02-09T09:26:42.001Z,1.60
2023-02-09T09:31:43.900Z,1.66
2023-02-09T09:36:45.603Z,1.84
2023-02-09T09:41:49.322Z,1.85
2023-02-09T09:46:53.322Z,2.00
2023-02-09T09:52:11.482Z,2.07
2023-02-09T09:57:27.409Z,2.09
2023-02-09T10:02:32.296Z,2.17
2023-02-09T10:07:34.624Z,2.20
2023-02-09T10:12:39.507Z,2.36
2023-02-09T10:17:41.106Z,2.39
2023-02-09T10:22:45.870Z,2.57
2023-02-09T10:27:47.516Z,2.76
2023-02-09T10:32:49.213Z,2.99
2023-02-09T10:37:59.081Z,3.19
2023-02-09T10:43:04.145Z,3.48
2023-02-09T10:48:11.972Z,3.68
2023-02-09T10:53:26.793Z,3.71
2023-02-09T10:58:32.740Z,3.77
2023-02-09T11:03:35.408Z,3.99
2023-02-09T11:08:52.294Z,4.15
2023-02-09T11:13:54.369Z,4.21
2023-02-09T11:19:06.460Z,4.45
2023-02-09T11:24:35.620Z,4.49
2023-02-09T11:29:43.469Z,4.60
2023-02-09T11:35:00.697Z,4.68
2023-02-09T11:40:39.843Z,4.71
2023-02-09T11:45:50.342Z,4.75
2023-02-09T11:51:00.910Z,4.84
2023-02-09T11:56:07.968Z,4.90
2023-02-09T12:01:20.610Z,4.89
2023-02-09T12:06:24.587Z,4.93
2023-02-09T12:11:41.987Z,4.94
2023-02-09T12:16:50.388Z,4.95
2023-02-09T12:21:52.098Z,4.93
2023-02-09T12:26:57.535Z,4.96
2023-02-09T12:32:06.214Z,5.00
2023-02-09T12:37:14.473Z,5.02
2023-02-09T12:42:16.066Z,5.02
2023-02-09T12:47:41.383Z,5.03
2023-02-09T12:53:21.547Z,5.07
2023-02-09T12:58:44.988Z,5.12
2023-02-09T13:04:05.249Z,5.15
2023-02-09T13:09:13.523Z,5.16
2023-02-09T13:14:16.640Z,5.18
2023-02-09T13:20:02.331Z,5.23
2023-02-09T13:25:32.345Z,5.24
2023-02-09T13:30:34.117Z,5.43
2023-02-09T13:35:46.705Z,5.50
2023-02-09T13:40:50.405Z,5.53
2023-02-09T13:45:54.667Z,5.53
2023-02-09T13:50:59.271Z,5.55
2023-02-09T14:02:39.003Z,5.63
2023-02-09T14:07:40.714Z,5.69
2023-02-09T14:12:51.235Z,5.70
2023-02-09T14:17:55.294Z,5.77
2023-02-09T14:23:00.602Z,5.88
2023-02-09T14:28:02.453Z,5.94
2023-02-09T14:33:04.298Z,5.97
2023-02-09T14:38:06.058Z,5.92
2023-02-09T14:43:10.624Z,5.92
2023-02-09T14:48:23.503Z,5.90
2023-02-09T14:53:29.707Z,5.90
2023-02-09T14:58:33.745Z,5.91
2023-02-09T15:03:35.398Z,5.87
2023-02-09T15:08:38.941Z,5.89
2023-02-09T15:13:40.795Z,5.95
2023-02-09T15:18:42.591Z,5.95
2023-02-09T15:23:44.213Z,5.99
2023-02-09T15:28:46.072Z,6.02
2023-02-09T15:33:47.832Z,6.07
2023-02-09T15:38:49.543Z,6.06
2023-02-09T15:44:09.620Z,6.06
2023-02-09T15:49:11.241Z,6.10
2023-02-09T15:54:18.761Z,6.15
2023-02-09T15:59:24.545Z,6.08
2023-02-09T16:04:26.300Z,6.05
2023-02-09T16:09:29.017Z,6.13
2023-02-09T16:14:31.661Z,6.13
2023-02-09T16:19:33.671Z,6.15
2023-02-09T16:24:46.514Z,6.14
2023-02-09T16:29:48.221Z,6.17
2023-02-09T16:34:50.502Z,6.14
2023-02-09T16:39:52.865Z,6.12
2023-02-09T16:44:54.516Z,6.09
2023-02-09T16:50:02.842Z,6.06
2023-02-09T16:55:07.028Z,6.07
2023-02-09T17:00:09.455Z,6.04
2023-02-09T17:05:29.346Z,6.00
2023-02-09T17:10:34.143Z,5.97
2023-02-09T17:15:47.231Z,5.94
2023-02-09T17:20:55.964Z,5.91
2023-02-09T17:25:58.301Z,5.87
2023-02-09T17:31:02.175Z,5.81
2023-02-09T17:36:25.227Z,5.76
2023-02-09T17:41:33.994Z,5.75
2023-02-09T17:46:35.740Z,5.72
2023-02-09T17:51:40.459Z,5.72
2023-02-09T17:56:43.424Z,5.69
2023-02-09T18:01:49.587Z,5.64
2023-02-09T18:06:51.318Z,5.58
2023-02-09T18:12:03.999Z,5.55
2023-02-09T18:17:05.739Z,5.48
2023-02-09T18:22:07.441Z,5.41
2023-02-09T18:27:14.790Z,5.36
2023-02-09T18:32:17.119Z,5.31
2023-02-09T18:37:18.817Z,5.26
2023-02-09T18:42:20.441Z,5.20
2023-02-09T18:47:22.200Z,5.12
2023-02-09T18:52:25.320Z,5.10
2023-02-09T18:57:27.093Z,5.11
2023-02-09T19:02:28.791Z,5.08
2023-02-09T19:07:32.458Z,5.05
2023-02-09T19:12:34.206Z,5.03
2023-02-09T19:17:35.979Z,4.97
2023-02-09T19:22:38.366Z,4.92
2023-02-09T19:27:40.321Z,4.90
2023-02-09T19:32:42.073Z,4.80
2023-02-09T19:37:43.923Z,4.78
2023-02-09T19:42:45.566Z,4.75
2023-02-09T19:47:47.202Z,4.74
2023-02-09T19:52:50.336Z,4.71
2023-02-09T19:57:52.088Z,4.70
2023-02-09T20:02:53.856Z,4.65
2023-02-09T20:07:55.761Z,4.64
2023-02-09T20:12:57.487Z,4.57
2023-02-09T20:17:59.205Z,4.59
2023-02-09T20:23:00.915Z,4.55
2023-02-09T20:28:02.956Z,4.56
2023-02-09T20:33:04.618Z,4.56
2023-02-09T20:38:06.427Z,4.51
2023-02-09T20:43:27.836Z,4.49
2023-02-09T20:48:29.487Z,4.50
2023-02-09T20:53:43.877Z,4.44
2023-02-09T20:58:45.899Z,4.38
2023-02-09T21:03:54.475Z,4.37
2023-02-09T21:09:06.237Z,4.30
2023-02-09T21:14:13.479Z,4.30
2023-02-09T21:19:24.511Z,4.30
2023-02-09T21:24:26.420Z,4.27
2023-02-09T21:29:29.302Z,4.22
2023-02-09T21:34:31.039Z,4.18
2023-02-09T21:39:32.704Z,4.22
2023-02-09T21:44:37.807Z,4.18
2023-02-09T21:49:39.431Z,4.18
2023-02-09T21:54:41.086Z,4.11
2023-02-09T21:59:42.961Z,4.16
2023-02-09T22:04:46.594Z,4.09
2023-02-09T22:09:48.243Z,4.05
2023-02-09T22:14:49.833Z,4.04
2023-02-09T22:19:51.466Z,4.05
2023-02-09T22:24:53.123Z,4.01
2023-02-09T22:29:54.688Z,4.04
2023-02-09T22:34:56.272Z,3.99
2023-02-09T22:39:57.979Z,4.01
2023-02-09T22:44:59.630Z,4.00
2023-02-09T22:50:01.490Z,3.97
2023-02-09T22:55:03.187Z,3.98
2023-02-09T23:00:07.668Z,3.97
2023-02-09T23:05:28.060Z,3.90
2023-02-09T23:10:30.721Z,3.94
2023-02-09T23:15:32.354Z,3.88
2023-02-09T23:20:33.983Z,3.85
2023-02-09T23:25:35.611Z,3.83
2023-02-09T23:30:37.690Z,3.77
2023-02-09T23:35:39.969Z,3.77
2023-02-09T23:40:41.642Z,3.81
2023-02-09T23:45:43.245Z,3.74
2023-02-09T23:50:44.948Z,3.71
2023-02-09T23:55:51.501Z,3.74
